Terminal Aerodrome Forecast
Issued by NWS Rapid City, SD

Home | Current Version | Previous Version | Graphics & Text | Print | Product List | Glossary On
Versions: 1 2 3 4 5 6 7 8 9 10 11 12 13 14 15 16 17 18 19 20 21
000
FTUS43 KUNR 290200 AAA
TAFRAP
TAF AMD
KRAP 290235Z 2903/2924 33028G38KT P6SM SCT015
      TEMPO 2903/2906 P6SM BKN015
     FM290600 34015G25KT P6SM BKN015
     FM291400 34012KT P6SM SCT030=

USA.gov is the U.S. government's official web portal to all federal, state and local government web resources and services.